createdAt,value
2018-11-29T00:00:07.043Z,7.20
2018-11-29T00:02:34.362Z,7.87
2018-11-29T00:05:01.776Z,6.78
2018-11-29T00:07:29.173Z,6.85
2018-11-29T00:09:56.574Z,7.65
2018-11-29T00:12:23.951Z,6.85
2018-11-29T00:14:51.292Z,6.80
2018-11-29T00:17:18.739Z,7.33
2018-11-29T00:19:46.063Z,6.65
2018-11-29T00:22:13.379Z,6.70
2018-11-29T00:24:40.716Z,6.55
2018-11-29T00:27:08.064Z,8.05
2018-11-29T00:29:35.354Z,7.00
2018-11-29T00:32:02.756Z,7.00
2018-11-29T00:34:30.049Z,6.72
2018-11-29T00:36:57.697Z,5.58
2018-11-29T00:39:24.999Z,7.35
2018-11-29T00:41:52.365Z,8.78
2018-11-29T00:44:19.709Z,7.37
2018-11-29T00:46:47.053Z,7.75
2018-11-29T00:49:14.395Z,7.47
2018-11-29T00:51:41.776Z,6.97
2018-11-29T00:54:09.054Z,6.65
2018-11-29T00:56:36.495Z,7.42
2018-11-29T00:59:03.779Z,6.40
2018-11-29T01:01:31.113Z,8.25
2018-11-29T01:03:58.489Z,6.70
2018-11-29T01:06:25.802Z,7.37
2018-11-29T01:08:53.556Z,7.45
2018-11-29T01:11:20.877Z,6.60
2018-11-29T01:13:48.178Z,7.97
2018-11-29T01:16:15.526Z,7.58
2018-11-29T01:18:42.883Z,6.87
2018-11-29T01:21:10.266Z,7.30
2018-11-29T01:23:38.905Z,8.88
2018-11-29T01:26:10.322Z,6.95
2018-11-29T01:31:04.454Z,7.58
2018-11-29T01:33:31.876Z,7.45
2018-11-29T01:35:59.180Z,7.00
2018-11-29T01:38:26.502Z,7.83
2018-11-29T01:40:53.851Z,7.58
2018-11-29T01:43:21.212Z,8.05
2018-11-29T01:45:48.487Z,7.92
2018-11-29T01:48:15.793Z,8.13
2018-11-29T01:50:49.749Z,7.80
2018-11-29T01:53:17.035Z,8.25
2018-11-29T01:55:44.344Z,8.53
2018-11-29T01:58:11.624Z,8.20
2018-11-29T02:00:39.080Z,8.15
2018-11-29T02:03:06.684Z,7.83
2018-11-29T02:05:33.997Z,7.08
2018-11-29T02:08:01.297Z,8.08
2018-11-29T02:10:32.923Z,7.78
2018-11-29T02:13:00.238Z,7.70
2018-11-29T02:15:27.627Z,8.33
2018-11-29T02:17:54.948Z,8.00
2018-11-29T02:20:22.258Z,8.13
2018-11-29T02:22:49.573Z,7.17
2018-11-29T02:25:16.959Z,7.95
2018-11-29T02:27:44.272Z,6.78
2018-11-29T02:30:14.500Z,8.98
2018-11-29T02:32:42.233Z,8.13
2018-11-29T02:35:09.544Z,7.03
2018-11-29T02:37:36.860Z,8.45
2018-11-29T02:40:04.508Z,7.17
2018-11-29T02:42:31.853Z,7.80
2018-11-29T02:44:59.113Z,7.80
2018-11-29T02:47:26.413Z,7.67
2018-11-29T02:49:53.687Z,7.58
2018-11-29T02:52:20.992Z,7.67
2018-11-29T02:54:48.277Z,6.67
2018-11-29T02:57:15.748Z,6.95
2018-11-29T02:59:43.324Z,7.72
2018-11-29T03:02:10.649Z,7.50
2018-11-29T03:04:37.960Z,7.50
2018-11-29T03:07:05.365Z,7.35
2018-11-29T03:09:32.636Z,7.80
2018-11-29T03:12:00.020Z,7.08
2018-11-29T03:14:27.340Z,6.58
2018-11-29T03:16:54.640Z,6.45
2018-11-29T03:19:21.946Z,6.40
2018-11-29T03:21:49.249Z,7.22
2018-11-29T03:24:16.556Z,6.70
2018-11-29T03:26:44.172Z,6.53
2018-11-29T03:29:11.492Z,6.80
2018-11-29T03:31:38.817Z,6.90
2018-11-29T03:34:06.748Z,6.00
2018-11-29T03:36:34.067Z,6.78
2018-11-29T03:39:01.349Z,7.30
2018-11-29T03:41:28.620Z,6.95
2018-11-29T03:43:56.757Z,7.60
2018-11-29T03:46:24.042Z,6.70
2018-11-29T03:48:51.343Z,6.85
2018-11-29T03:51:18.767Z,7.00
2018-11-29T03:53:46.403Z,6.03
2018-11-29T03:56:13.689Z,6.30
2018-11-29T03:58:41.681Z,6.10
2018-11-29T04:01:08.981Z,6.97
2018-11-29T04:03:36.293Z,6.58
2018-11-29T04:06:03.623Z,6.37
2018-11-29T04:08:30.911Z,5.72
2018-11-29T04:10:58.210Z,6.37
2018-11-29T04:13:25.555Z,6.35
2018-11-29T04:15:52.853Z,6.60
2018-11-29T04:18:24.366Z,6.15
2018-11-29T04:20:51.859Z,6.20
2018-11-29T04:23:19.226Z,5.87
2018-11-29T04:25:46.572Z,6.50
2018-11-29T04:28:13.829Z,5.65
2018-11-29T04:30:41.193Z,6.20
2018-11-29T04:33:08.498Z,6.10
2018-11-29T04:35:35.845Z,6.70
2018-11-29T04:38:03.141Z,6.47
2018-11-29T04:40:30.443Z,6.12
2018-11-29T04:42:57.752Z,5.90
2018-11-29T04:45:25.092Z,5.50
2018-11-29T04:47:52.524Z,6.33
2018-11-29T04:50:19.813Z,6.42
2018-11-29T04:52:47.168Z,5.70
2018-11-29T04:55:14.431Z,6.37
2018-11-29T04:57:41.785Z,6.90
2018-11-29T05:00:11.255Z,6.35
2018-11-29T05:02:38.625Z,5.40
2018-11-29T05:05:06.099Z,5.60
2018-11-29T05:07:33.399Z,6.25
2018-11-29T05:10:00.744Z,5.60
2018-11-29T05:12:28.048Z,6.30
2018-11-29T05:14:55.360Z,5.83
2018-11-29T05:17:22.656Z,5.80
2018-11-29T05:19:49.992Z,5.80
2018-11-29T05:22:17.392Z,6.25
2018-11-29T05:24:44.685Z,5.50
2018-11-29T05:27:11.996Z,5.85
2018-11-29T05:29:39.468Z,4.87
2018-11-29T05:32:06.924Z,5.45
2018-11-29T05:34:34.157Z,5.70
2018-11-29T05:37:01.434Z,6.67
2018-11-29T05:39:28.821Z,5.00
2018-11-29T05:41:56.153Z,6.22
2018-11-29T05:44:23.445Z,5.97
2018-11-29T05:46:50.867Z,5.75
2018-11-29T05:49:18.163Z,5.50
2018-11-29T05:51:45.547Z,5.92
2018-11-29T05:54:12.900Z,6.22
2018-11-29T05:56:40.208Z,5.87
2018-11-29T05:59:07.539Z,5.35
2018-11-29T06:01:44.328Z,6.05
2018-11-29T06:04:11.632Z,5.08
2018-11-29T06:06:38.953Z,5.40
2018-11-29T06:09:07.796Z,6.78
2018-11-29T06:11:35.112Z,5.00
2018-11-29T06:14:02.381Z,6.22
2018-11-29T06:16:29.666Z,5.10
2018-11-29T06:18:56.970Z,5.40
2018-11-29T06:21:24.272Z,5.87
2018-11-29T06:23:51.583Z,5.37
2018-11-29T06:26:18.921Z,6.42
2018-11-29T06:28:46.212Z,6.15
2018-11-29T06:31:13.496Z,5.40
2018-11-29T06:33:40.822Z,5.10
2018-11-29T06:36:08.196Z,5.03
2018-11-29T06:38:35.509Z,5.00
2018-11-29T06:41:02.834Z,5.50
2018-11-29T06:43:30.109Z,5.90
2018-11-29T06:45:57.414Z,5.85
2018-11-29T06:48:24.726Z,5.65
2018-11-29T06:50:52.013Z,5.87
2018-11-29T06:53:24.823Z,5.45
2018-11-29T06:55:52.116Z,5.90
2018-11-29T06:58:19.438Z,7.08
2018-11-29T07:00:46.685Z,5.45
2018-11-29T07:03:14.044Z,5.28
2018-11-29T07:05:41.328Z,5.92
2018-11-29T07:08:08.642Z,5.53
2018-11-29T07:10:36.133Z,5.22
2018-11-29T07:13:04.078Z,5.92
2018-11-29T07:15:31.399Z,5.92
2018-11-29T07:17:58.672Z,4.60
2018-11-29T07:20:25.987Z,4.90
2018-11-29T07:22:53.290Z,5.22
2018-11-29T07:25:20.679Z,4.85
2018-11-29T07:27:47.994Z,5.78
2018-11-29T07:30:15.798Z,5.00
2018-11-29T07:32:43.132Z,5.42
2018-11-29T07:35:11.099Z,5.58
2018-11-29T07:37:38.517Z,5.55
2018-11-29T07:40:20.705Z,6.28
2018-11-29T07:42:48.717Z,5.08
2018-11-29T07:45:16.542Z,4.90
2018-11-29T07:47:44.020Z,5.37
2018-11-29T07:50:11.922Z,6.00
2018-11-29T07:52:39.219Z,5.67
2018-11-29T07:55:08.598Z,5.55
2018-11-29T07:57:35.882Z,5.08
2018-11-29T08:00:03.213Z,5.15
2018-11-29T08:02:30.505Z,5.40
2018-11-29T08:04:57.780Z,5.00
2018-11-29T08:07:25.067Z,5.12
2018-11-29T08:09:52.371Z,4.87
2018-11-29T08:12:19.681Z,5.20
2018-11-29T08:14:47.030Z,5.58
2018-11-29T08:17:14.386Z,4.95
2018-11-29T08:19:41.700Z,4.50
2018-11-29T08:22:08.980Z,5.53
2018-11-29T08:24:36.256Z,3.65
2018-11-29T08:27:03.604Z,4.95
2018-11-29T08:29:35.087Z,4.30
2018-11-29T08:31:58.349Z,3.98
2018-11-29T08:34:25.636Z,4.47
2018-11-29T08:36:52.953Z,4.25
2018-11-29T08:39:20.260Z,4.80
2018-11-29T08:41:47.531Z,4.10
2018-11-29T08:44:14.837Z,4.08
2018-11-29T08:46:42.158Z,3.80
2018-11-29T08:49:09.479Z,5.05
2018-11-29T08:51:36.757Z,4.53
2018-11-29T08:54:04.141Z,5.40
2018-11-29T08:56:31.448Z,5.12
2018-11-29T08:58:58.744Z,5.72
2018-11-29T09:01:26.049Z,5.65
2018-11-29T09:03:53.412Z,6.67
2018-11-29T09:06:20.719Z,5.87
2018-11-29T09:08:48.005Z,6.85
2018-11-29T09:11:15.325Z,6.10
2018-11-29T09:13:42.678Z,6.28
2018-11-29T09:16:09.977Z,6.85
2018-11-29T09:18:37.228Z,6.35
2018-11-29T09:21:04.581Z,5.92
2018-11-29T09:23:31.920Z,6.83
2018-11-29T09:25:59.296Z,6.67
2018-11-29T09:28:26.559Z,7.03
2018-11-29T09:30:53.845Z,7.75
2018-11-29T09:33:21.109Z,6.85
2018-11-29T09:35:48.446Z,6.35
2018-11-29T09:38:15.775Z,6.83
2018-11-29T09:40:43.114Z,6.90
2018-11-29T09:43:10.421Z,6.53
2018-11-29T09:45:37.712Z,7.20
2018-11-29T09:48:05.044Z,5.30
2018-11-29T09:50:32.388Z,5.83
2018-11-29T09:52:59.672Z,6.55
2018-11-29T09:55:26.941Z,6.75
2018-11-29T09:57:54.251Z,6.72
2018-11-29T10:00:28.601Z,6.47
2018-11-29T10:02:59.433Z,6.70
2018-11-29T10:05:26.739Z,6.53
2018-11-29T10:07:54.035Z,6.40
2018-11-29T10:10:21.321Z,6.30
2018-11-29T10:12:48.928Z,5.78
2018-11-29T10:15:16.268Z,5.55
2018-11-29T10:17:43.573Z,6.90
2018-11-29T10:20:11.573Z,6.60
2018-11-29T10:22:39.097Z,5.75
2018-11-29T10:25:07.100Z,6.00
2018-11-29T10:27:34.638Z,6.25
2018-11-29T10:30:01.922Z,6.20
2018-11-29T10:32:29.224Z,5.92
2018-11-29T10:34:56.524Z,6.55
2018-11-29T10:37:23.854Z,6.65
2018-11-29T10:39:51.229Z,7.15
2018-11-29T10:42:18.518Z,6.22
2018-11-29T10:44:45.821Z,6.53
2018-11-29T10:47:13.137Z,6.40
2018-11-29T10:49:40.440Z,6.67
2018-11-29T10:52:07.753Z,6.70
2018-11-29T10:54:35.040Z,7.50
2018-11-29T10:57:02.371Z,7.97
2018-11-29T10:59:29.680Z,7.72
2018-11-29T11:02:02.441Z,7.37
2018-11-29T11:04:29.748Z,7.72
2018-11-29T11:06:57.050Z,8.00
2018-11-29T11:09:24.353Z,6.30
2018-11-29T11:11:51.659Z,6.10
2018-11-29T11:14:18.960Z,5.70
2018-11-29T11:16:46.284Z,5.80
2018-11-29T11:19:13.593Z,4.90
2018-11-29T11:21:40.923Z,6.00
2018-11-29T11:24:08.194Z,5.08
2018-11-29T11:26:35.515Z,4.17
2018-11-29T11:29:02.828Z,4.28
2018-11-29T11:31:31.183Z,4.30
2018-11-29T11:33:57.501Z,4.70
2018-11-29T11:36:24.858Z,5.53
2018-11-29T11:38:52.302Z,4.55
2018-11-29T11:41:19.601Z,5.45
2018-11-29T11:43:46.907Z,6.20
2018-11-29T11:46:14.204Z,5.53
2018-11-29T11:48:41.632Z,8.00
2018-11-29T11:51:08.924Z,6.17
2018-11-29T11:53:36.233Z,5.55
2018-11-29T11:56:03.628Z,6.60
2018-11-29T11:58:30.939Z,4.60
2018-11-29T12:00:58.202Z,4.78
2018-11-29T12:03:25.535Z,3.80
2018-11-29T12:05:52.851Z,4.50
2018-11-29T12:08:20.141Z,4.12
2018-11-29T12:10:47.457Z,4.25
2018-11-29T12:13:14.745Z,5.22
2018-11-29T12:15:42.105Z,4.10
2018-11-29T12:18:10.061Z,3.98
2018-11-29T12:20:37.378Z,4.97
2018-11-29T12:23:04.675Z,5.03
2018-11-29T12:25:31.972Z,5.75
2018-11-29T12:27:59.277Z,5.97
2018-11-29T12:30:29.277Z,5.22
2018-11-29T12:32:57.251Z,5.25
2018-11-29T12:35:24.593Z,6.08
2018-11-29T12:37:53.211Z,5.12
2018-11-29T12:40:19.163Z,5.53
2018-11-29T12:42:46.556Z,4.87
2018-11-29T12:45:14.245Z,4.97
2018-11-29T12:47:41.800Z,5.95
2018-11-29T12:50:12.537Z,5.10
2018-11-29T12:52:39.856Z,4.90
2018-11-29T12:55:07.861Z,4.50
2018-11-29T12:57:35.174Z,4.20
2018-11-29T13:00:02.425Z,4.35
2018-11-29T13:02:29.846Z,4.28
2018-11-29T13:04:57.108Z,3.90
2018-11-29T13:07:24.494Z,3.92
2018-11-29T13:09:51.801Z,3.80
2018-11-29T13:12:19.126Z,2.80
2018-11-29T13:14:46.488Z,3.70
2018-11-29T13:17:14.347Z,3.12
2018-11-29T13:19:41.155Z,3.70
2018-11-29T13:22:08.454Z,3.12
2018-11-29T13:24:35.849Z,3.27
2018-11-29T13:27:03.153Z,2.90
2018-11-29T13:29:30.456Z,3.40
2018-11-29T13:31:57.720Z,3.60
2018-11-29T13:34:25.072Z,3.40
2018-11-29T13:36:52.337Z,3.37
2018-11-29T13:39:19.726Z,3.20
2018-11-29T13:41:47.041Z,3.17
2018-11-29T13:44:14.338Z,3.15
2018-11-29T13:46:41.846Z,3.60
2018-11-29T13:49:09.162Z,3.37
2018-11-29T13:51:36.465Z,3.45
2018-11-29T13:54:03.788Z,3.42
2018-11-29T13:56:31.085Z,3.45
2018-11-29T13:58:58.410Z,3.30
2018-11-29T14:01:25.785Z,3.83
2018-11-29T14:03:53.093Z,4.03
2018-11-29T14:06:20.429Z,3.42
2018-11-29T14:08:47.742Z,4.37
2018-11-29T14:11:15.094Z,3.20
2018-11-29T14:13:42.447Z,3.77
2018-11-29T14:16:09.992Z,3.65
2018-11-29T14:18:37.344Z,3.70
2018-11-29T14:21:04.960Z,3.05
2018-11-29T14:23:32.224Z,2.75
2018-11-29T14:25:59.540Z,3.35
2018-11-29T14:28:26.809Z,3.72
2018-11-29T14:30:54.150Z,3.60
2018-11-29T14:33:21.424Z,3.33
2018-11-29T14:35:48.724Z,3.67
2018-11-29T14:38:16.020Z,3.70
2018-11-29T14:40:43.363Z,4.37
2018-11-29T14:43:10.634Z,4.45
2018-11-29T14:45:37.945Z,3.60
2018-11-29T14:48:05.271Z,4.30
2018-11-29T14:50:33.337Z,6.00
2018-11-29T14:53:00.657Z,3.60
2018-11-29T14:55:27.956Z,3.92
2018-11-29T14:57:55.295Z,4.10
2018-11-29T15:00:22.595Z,4.33
2018-11-29T15:02:50.228Z,3.80
2018-11-29T15:05:32.197Z,3.55
2018-11-29T15:07:59.488Z,4.47
2018-11-29T15:10:26.835Z,5.22
2018-11-29T15:12:54.156Z,4.40
2018-11-29T15:15:21.498Z,3.83
2018-11-29T15:17:49.256Z,4.83
2018-11-29T15:20:20.433Z,5.03
2018-11-29T15:22:47.774Z,3.65
2018-11-29T15:25:15.080Z,3.70
2018-11-29T15:27:42.385Z,3.80
2018-11-29T15:30:10.571Z,4.45
2018-11-29T15:32:37.952Z,4.37
2018-11-29T15:35:05.904Z,4.40
2018-11-29T15:37:33.177Z,4.47
2018-11-29T15:40:00.478Z,4.45
2018-11-29T15:42:27.785Z,4.30
2018-11-29T15:44:55.092Z,3.37
2018-11-29T15:47:22.394Z,4.05
2018-11-29T15:49:49.703Z,3.90
2018-11-29T15:52:17.010Z,4.08
2018-11-29T15:54:44.391Z,4.37
2018-11-29T15:57:11.705Z,4.70
2018-11-29T15:59:39.059Z,4.12
2018-11-29T16:02:06.417Z,4.60
2018-11-29T16:04:33.752Z,4.40
2018-11-29T16:07:01.051Z,4.40
2018-11-29T16:09:28.433Z,3.40
2018-11-29T16:11:55.766Z,4.25
2018-11-29T16:14:23.127Z,3.80
2018-11-29T16:16:50.444Z,3.33
2018-11-29T16:19:17.743Z,3.67
2018-11-29T16:21:45.028Z,3.95
2018-11-29T16:24:12.372Z,3.25
2018-11-29T16:26:39.688Z,2.60
2018-11-29T16:29:06.965Z,2.98
2018-11-29T16:31:34.354Z,3.15
2018-11-29T16:34:01.682Z,2.90
2018-11-29T16:36:28.984Z,2.83
2018-11-29T16:38:56.299Z,3.00
2018-11-29T16:41:23.622Z,2.83
2018-11-29T16:43:50.962Z,4.15
2018-11-29T16:46:18.292Z,2.70
2018-11-29T16:48:45.641Z,3.10
2018-11-29T16:51:13.016Z,2.70
2018-11-29T16:53:40.301Z,3.65
2018-11-29T16:56:07.585Z,3.33
2018-11-29T16:58:34.889Z,3.27
2018-11-29T17:01:02.296Z,3.45
2018-11-29T17:03:29.677Z,3.55
2018-11-29T17:05:56.946Z,3.62
2018-11-29T17:08:24.220Z,3.80
2018-11-29T17:10:51.549Z,4.08
2018-11-29T17:13:19.158Z,3.58
2018-11-29T17:15:46.521Z,3.47
2018-11-29T17:18:13.899Z,3.90
2018-11-29T17:20:41.223Z,3.77
2018-11-29T17:23:09.127Z,4.17
2018-11-29T17:25:36.441Z,4.28
2018-11-29T17:28:03.841Z,3.90
2018-11-29T17:30:31.153Z,3.65
2018-11-29T17:32:58.859Z,3.25
2018-11-29T17:35:26.168Z,4.70
2018-11-29T17:37:54.120Z,4.00
2018-11-29T17:40:21.684Z,4.58
2018-11-29T17:42:49.277Z,4.00
2018-11-29T17:45:19.196Z,4.15
2018-11-29T17:47:47.008Z,4.25
2018-11-29T17:50:18.213Z,3.90
2018-11-29T17:52:45.516Z,4.62
2018-11-29T17:55:12.872Z,4.40
2018-11-29T17:57:40.270Z,4.00
2018-11-29T18:00:09.875Z,4.10
2018-11-29T18:02:37.241Z,4.30
2018-11-29T18:05:04.998Z,5.00
2018-11-29T18:07:32.432Z,4.40
2018-11-29T18:09:59.722Z,4.12
2018-11-29T18:12:27.002Z,4.50
2018-11-29T18:14:54.376Z,3.92
2018-11-29T18:17:21.728Z,3.92
2018-11-29T18:19:49.056Z,3.90
2018-11-29T18:22:17.189Z,3.47
2018-11-29T18:24:44.536Z,3.08
2018-11-29T18:27:11.960Z,3.35
2018-11-29T18:29:39.253Z,2.80
2018-11-29T18:32:06.696Z,2.55
2018-11-29T18:34:34.133Z,2.40
2018-11-29T18:37:01.377Z,2.67
2018-11-29T18:39:28.758Z,2.87
2018-11-29T18:41:56.392Z,2.85
2018-11-29T18:44:23.762Z,2.70
2018-11-29T18:46:51.109Z,3.20
2018-11-29T18:49:18.469Z,2.30
2018-11-29T18:51:45.782Z,3.15
2018-11-29T18:54:13.176Z,3.60
2018-11-29T18:56:40.500Z,3.33
2018-11-29T18:59:07.876Z,3.50
2018-11-29T19:01:35.489Z,3.67
2018-11-29T19:04:02.856Z,3.65
2018-11-29T19:06:30.196Z,4.00
2018-11-29T19:08:57.557Z,3.60
2018-11-29T19:11:25.004Z,4.20
2018-11-29T19:13:52.422Z,3.75
2018-11-29T19:16:19.787Z,4.83
2018-11-29T19:18:47.136Z,3.70
2018-11-29T19:21:14.475Z,3.58
2018-11-29T19:23:41.857Z,4.05
2018-11-29T19:26:09.380Z,4.55
2018-11-29T19:28:36.618Z,3.25
2018-11-29T19:31:03.990Z,2.67
2018-11-29T19:33:31.306Z,3.35
2018-11-29T19:35:58.705Z,4.15
2018-11-29T19:38:26.274Z,3.90
2018-11-29T19:40:53.915Z,2.90
2018-11-29T19:43:21.257Z,3.22
2018-11-29T19:45:48.678Z,2.83
2018-11-29T19:48:16.060Z,3.17
2018-11-29T19:50:43.488Z,4.35
2018-11-29T19:53:16.499Z,3.47
2018-11-29T19:55:43.951Z,3.67
2018-11-29T19:58:11.286Z,4.00
2018-11-29T20:00:38.879Z,3.65
2018-11-29T20:03:06.601Z,4.70
2018-11-29T20:05:33.957Z,4.20
2018-11-29T20:08:01.295Z,4.03
2018-11-29T20:10:28.646Z,4.70
2018-11-29T20:13:01.376Z,4.30
2018-11-29T20:15:29.052Z,4.45
2018-11-29T20:17:56.227Z,4.15
2018-11-29T20:20:23.632Z,4.58
2018-11-29T20:22:50.935Z,5.42
2018-11-29T20:25:18.996Z,5.30
2018-11-29T20:27:46.462Z,4.60
2018-11-29T20:30:14.499Z,5.30
2018-11-29T20:32:41.852Z,4.70
2018-11-29T20:35:09.582Z,5.10
2018-11-29T20:37:36.970Z,4.67
2018-11-29T20:40:05.975Z,5.40
2018-11-29T20:42:33.363Z,4.97
2018-11-29T20:45:00.724Z,5.83
2018-11-29T20:47:28.054Z,5.10
2018-11-29T20:49:55.854Z,5.58
2018-11-29T20:52:23.197Z,4.75
2018-11-29T20:54:50.536Z,5.15
2018-11-29T20:57:17.923Z,4.95
2018-11-29T20:59:45.260Z,5.50
2018-11-29T21:02:12.595Z,4.70
2018-11-29T21:04:40.078Z,5.10
2018-11-29T21:07:07.481Z,5.20
2018-11-29T21:09:34.793Z,5.53
2018-11-29T21:12:02.224Z,5.40
2018-11-29T21:14:29.607Z,6.37
2018-11-29T21:16:56.954Z,6.53
2018-11-29T21:19:24.371Z,5.50
2018-11-29T21:21:51.873Z,6.20
2018-11-29T21:24:19.208Z,5.08
2018-11-29T21:26:46.511Z,5.70
2018-11-29T21:29:13.837Z,6.17
2018-11-29T21:31:41.190Z,5.12
2018-11-29T21:34:08.518Z,5.67
2018-11-29T21:36:35.834Z,5.80
2018-11-29T21:39:03.302Z,5.65
2018-11-29T21:41:30.636Z,6.15
2018-11-29T21:43:57.961Z,5.85
2018-11-29T21:46:25.372Z,5.70
2018-11-29T21:48:52.712Z,5.80
2018-11-29T21:51:20.080Z,5.20
2018-11-29T21:53:47.349Z,5.75
2018-11-29T21:56:14.754Z,6.03
2018-11-29T21:58:42.093Z,5.55
2018-11-29T22:01:09.429Z,6.12
2018-11-29T22:03:36.773Z,5.83
2018-11-29T22:06:04.173Z,6.47
2018-11-29T22:08:31.557Z,7.15
2018-11-29T22:10:58.937Z,9.23
2018-11-29T22:13:26.346Z,6.58
2018-11-29T22:15:53.663Z,6.62
2018-11-29T22:18:22.536Z,8.38
2018-11-29T22:20:50.615Z,7.12
2018-11-29T22:23:17.921Z,6.37
2018-11-29T22:25:45.300Z,7.12
2018-11-29T22:28:12.662Z,6.20
2018-11-29T22:30:40.075Z,6.10
2018-11-29T22:33:07.352Z,6.30
2018-11-29T22:35:34.668Z,6.22
2018-11-29T22:38:02.029Z,5.92
2018-11-29T22:40:29.373Z,5.53
2018-11-29T22:42:56.781Z,6.20
2018-11-29T22:45:24.177Z,6.25
2018-11-29T22:47:51.544Z,5.22
2018-11-29T22:50:18.882Z,5.78
2018-11-29T22:52:46.166Z,7.10
2018-11-29T22:55:13.641Z,6.10
2018-11-29T22:57:40.815Z,5.75
2018-11-29T23:00:10.036Z,5.42
2018-11-29T23:02:37.528Z,5.58
2018-11-29T23:05:05.295Z,6.47
2018-11-29T23:07:32.603Z,6.17
2018-11-29T23:10:00.112Z,5.22
2018-11-29T23:12:27.427Z,6.00
2018-11-29T23:14:54.802Z,6.53
2018-11-29T23:17:22.117Z,5.50
2018-11-29T23:19:49.424Z,6.08
2018-11-29T23:22:16.835Z,5.67
2018-11-29T23:24:44.180Z,5.30
2018-11-29T23:27:11.536Z,5.08
2018-11-29T23:29:38.814Z,5.17
2018-11-29T23:32:06.173Z,5.80
2018-11-29T23:34:33.544Z,4.65
2018-11-29T23:37:00.952Z,5.65
2018-11-29T23:39:28.281Z,5.55
2018-11-29T23:41:55.568Z,5.75
2018-11-29T23:44:22.913Z,5.55
2018-11-29T23:46:50.270Z,5.12
2018-11-29T23:49:17.556Z,5.90
2018-11-29T23:51:44.914Z,6.50
2018-11-29T23:54:12.231Z,5.25
2018-11-29T23:56:39.577Z,5.05
2018-11-29T23:59:06.881Z,5.85
